createdAt,value
2023-05-03T00:02:24.688Z,7.70
2023-05-03T00:04:54.989Z,7.60
2023-05-03T00:07:23.130Z,7.60
2023-05-03T00:09:50.438Z,7.60
2023-05-03T00:12:17.797Z,7.60
2023-05-03T00:14:46.125Z,7.50
2023-05-03T00:17:13.711Z,7.50
2023-05-03T00:19:40.718Z,7.50
2023-05-03T00:22:07.885Z,7.40
2023-05-03T00:24:36.735Z,7.40
2023-05-03T00:27:04.957Z,7.30
2023-05-03T00:29:31.921Z,7.40
2023-05-03T00:32:00.461Z,7.40
2023-05-03T00:34:27.475Z,7.40
2023-05-03T00:36:54.584Z,7.40
2023-05-03T00:39:21.608Z,7.30
2023-05-03T00:41:48.828Z,7.30
2023-05-03T00:44:15.913Z,7.30
2023-05-03T00:46:43.136Z,7.30
2023-05-03T00:49:10.468Z,7.20
2023-05-03T00:51:37.614Z,7.20
2023-05-03T00:54:04.964Z,7.10
2023-05-03T00:56:40.962Z,7.10
2023-05-03T00:59:18.971Z,7.10
2023-05-03T01:01:53.297Z,7.10
2023-05-03T01:04:22.187Z,7.00
2023-05-03T01:06:55.734Z,6.90
2023-05-03T01:09:33.172Z,6.90
2023-05-03T01:12:12.229Z,6.80
2023-05-03T01:15:05.439Z,6.80
2023-05-03T01:17:39.196Z,6.80
2023-05-03T01:20:10.561Z,6.80
2023-05-03T01:22:50.810Z,6.70
2023-05-03T01:25:17.871Z,6.70
2023-05-03T01:27:44.869Z,6.60
2023-05-03T01:30:13.041Z,6.60
2023-05-03T01:33:04.762Z,6.60
2023-05-03T01:36:01.499Z,6.60
2023-05-03T01:38:32.796Z,6.60
2023-05-03T01:41:02.546Z,6.50
2023-05-03T01:43:33.032Z,6.40
2023-05-03T01:46:00.332Z,6.40
2023-05-03T01:48:27.420Z,6.30
2023-05-03T01:50:54.805Z,6.30
2023-05-03T01:53:21.838Z,6.20
2023-05-03T01:55:48.839Z,6.20
2023-05-03T01:58:16.254Z,6.20
2023-05-03T02:00:44.960Z,6.20
2023-05-03T02:03:12.219Z,6.20
2023-05-03T02:05:39.280Z,6.10
2023-05-03T02:08:06.343Z,6.20
2023-05-03T02:10:33.319Z,6.30
2023-05-03T02:13:00.681Z,6.20
2023-05-03T02:15:27.679Z,6.10
2023-05-03T02:17:55.909Z,6.10
2023-05-03T02:20:22.984Z,6.10
2023-05-03T02:22:50.094Z,6.00
2023-05-03T02:25:17.067Z,6.00
2023-05-03T02:27:44.165Z,5.90
2023-05-03T02:30:11.644Z,5.80
2023-05-03T02:32:38.817Z,5.70
2023-05-03T02:35:06.713Z,5.70
2023-05-03T02:37:33.878Z,5.80
2023-05-03T02:40:01.143Z,5.70
2023-05-03T02:42:28.876Z,5.60
2023-05-03T02:44:55.873Z,5.60
2023-05-03T02:47:23.012Z,5.50
2023-05-03T02:49:50.185Z,5.50
2023-05-03T02:52:17.238Z,5.40
2023-05-03T02:54:44.304Z,5.40
2023-05-03T02:57:12.379Z,5.40
2023-05-03T02:59:39.349Z,5.50
2023-05-03T03:02:06.686Z,5.50
2023-05-03T03:04:33.806Z,5.50
2023-05-03T03:07:01.143Z,5.50
2023-05-03T03:09:28.198Z,5.50
2023-05-03T03:11:55.443Z,5.50
2023-05-03T03:14:22.442Z,5.50
2023-05-03T03:16:51.507Z,5.30
2023-05-03T03:19:18.680Z,5.30
2023-05-03T03:21:46.255Z,5.30
2023-05-03T03:24:13.434Z,5.40
2023-05-03T03:26:40.778Z,5.40
2023-05-03T03:29:09.972Z,5.30
2023-05-03T03:31:36.997Z,5.30
2023-05-03T03:34:04.155Z,5.20
2023-05-03T03:36:31.691Z,5.30
2023-05-03T03:38:58.710Z,5.20
2023-05-03T03:41:25.776Z,5.10
2023-05-03T03:43:52.827Z,5.10
2023-05-03T03:46:19.962Z,5.10
2023-05-03T03:48:47.123Z,5.10
2023-05-03T03:51:14.124Z,5.00
2023-05-03T03:53:41.360Z,4.90
2023-05-03T03:56:10.588Z,4.80
2023-05-03T03:58:37.845Z,4.80
2023-05-03T04:01:05.157Z,4.90
2023-05-03T04:03:35.530Z,5.00
2023-05-03T04:06:04.086Z,5.10
2023-05-03T04:08:31.172Z,5.00
2023-05-03T04:10:58.169Z,5.00
2023-05-03T04:13:39.451Z,5.00
2023-05-03T04:16:07.861Z,5.10
2023-05-03T04:18:35.148Z,5.10
2023-05-03T04:21:03.218Z,5.10
2023-05-03T04:23:31.750Z,5.10
2023-05-03T04:25:58.721Z,5.20
2023-05-03T04:28:29.852Z,5.20
2023-05-03T04:30:59.937Z,5.20
2023-05-03T04:33:28.989Z,5.40
2023-05-03T04:36:30.075Z,5.50
2023-05-03T04:38:57.448Z,5.60
2023-05-03T04:41:24.876Z,5.80
2023-05-03T04:43:53.559Z,5.90
2023-05-03T04:46:20.630Z,6.00
2023-05-03T04:48:47.706Z,6.10
2023-05-03T04:51:15.783Z,6.20
2023-05-03T04:53:42.865Z,6.30
2023-05-03T04:56:29.701Z,6.50
2023-05-03T04:58:56.732Z,6.70
2023-05-03T05:01:28.169Z,6.80
2023-05-03T05:03:56.541Z,6.90
2023-05-03T05:06:24.107Z,7.10
2023-05-03T05:08:53.230Z,7.20
2023-05-03T05:11:21.110Z,7.20
2023-05-03T05:13:48.453Z,7.40
2023-05-03T05:16:35.752Z,7.60
2023-05-03T05:19:03.416Z,7.80
2023-05-03T05:21:30.634Z,8.00
2023-05-03T05:23:59.753Z,8.20
2023-05-03T05:26:27.650Z,8.30
2023-05-03T05:28:54.876Z,8.50
2023-05-03T05:31:22.143Z,9.20
2023-05-03T05:33:49.145Z,11.40
2023-05-03T05:36:16.400Z,14.00
2023-05-03T05:38:43.707Z,16.10
2023-05-03T05:41:10.702Z,17.50
2023-05-03T05:43:37.815Z,18.40
2023-05-03T05:46:05.153Z,19.50
2023-05-03T05:48:32.155Z,20.50
2023-05-03T05:50:59.106Z,21.30
2023-05-03T05:53:26.232Z,22.30
2023-05-03T05:55:53.231Z,22.80
2023-05-03T05:58:20.500Z,22.50
2023-05-03T06:00:49.288Z,22.70
2023-05-03T06:03:16.867Z,23.30
2023-05-03T06:05:44.063Z,23.70
2023-05-03T06:08:12.953Z,23.70
2023-05-03T06:10:40.235Z,24.00
2023-05-03T06:13:07.351Z,24.30
2023-05-03T06:15:34.320Z,24.80
2023-05-03T06:18:01.518Z,25.10
2023-05-03T06:20:28.764Z,25.30
2023-05-03T06:22:55.894Z,25.60
2023-05-03T06:25:22.868Z,25.00
2023-05-03T06:27:50.005Z,25.10
2023-05-03T06:30:17.054Z,25.30
2023-05-03T06:32:44.247Z,26.10
2023-05-03T06:35:11.265Z,25.80
2023-05-03T06:37:38.598Z,25.50
2023-05-03T06:40:07.105Z,25.30
2023-05-03T06:42:34.217Z,25.60
2023-05-03T06:45:01.238Z,24.80
2023-05-03T06:47:28.260Z,23.90
2023-05-03T06:49:55.268Z,24.80
2023-05-03T06:52:22.331Z,24.80
2023-05-03T06:54:49.361Z,24.10
2023-05-03T06:57:16.515Z,24.40
2023-05-03T06:59:43.509Z,23.70
2023-05-03T07:02:12.053Z,23.30
2023-05-03T07:04:39.831Z,22.90
2023-05-03T07:07:07.341Z,23.60
2023-05-03T07:09:42.805Z,23.90
2023-05-03T07:12:11.621Z,23.60
2023-05-03T07:14:40.345Z,22.40
2023-05-03T07:17:07.673Z,22.30
2023-05-03T07:19:34.975Z,22.00
2023-05-03T07:22:03.569Z,21.40
2023-05-03T07:24:30.648Z,20.90
2023-05-03T07:26:58.439Z,20.70
2023-05-03T07:29:27.356Z,20.70
2023-05-03T07:31:54.594Z,20.60
2023-05-03T07:34:21.870Z,20.40
2023-05-03T07:36:48.972Z,21.10
2023-05-03T07:39:16.149Z,20.70
2023-05-03T07:41:43.264Z,20.30
2023-05-03T07:44:10.321Z,20.00
2023-05-03T07:46:37.449Z,19.70
2023-05-03T07:49:06.257Z,18.60
2023-05-03T07:51:37.436Z,18.40
2023-05-03T07:54:04.928Z,18.30
2023-05-03T07:56:32.467Z,17.90
2023-05-03T07:59:08.444Z,17.90
2023-05-03T08:01:37.987Z,18.00
2023-05-03T08:04:05.487Z,18.30
2023-05-03T08:06:33.671Z,18.20
2023-05-03T08:09:00.976Z,17.90
2023-05-03T08:11:29.242Z,17.20
2023-05-03T08:13:56.964Z,17.10
2023-05-03T08:16:24.730Z,16.90
2023-05-03T08:18:51.917Z,17.00
2023-05-03T08:21:19.426Z,16.80
2023-05-03T08:23:46.545Z,16.90
2023-05-03T08:26:14.363Z,16.80
2023-05-03T08:28:41.769Z,16.50
2023-05-03T08:31:09.060Z,17.00
2023-05-03T08:33:37.036Z,17.00
2023-05-03T08:36:04.294Z,16.90
2023-05-03T08:38:31.608Z,17.10
2023-05-03T08:41:04.008Z,17.30
2023-05-03T08:43:35.425Z,17.60
2023-05-03T08:46:03.363Z,17.30
2023-05-03T08:48:31.425Z,17.30
2023-05-03T08:51:00.135Z,17.60
2023-05-03T08:53:27.133Z,17.70
2023-05-03T08:55:54.448Z,17.70
2023-05-03T08:58:21.654Z,17.10
2023-05-03T09:00:48.689Z,17.20
2023-05-03T09:03:15.841Z,17.60
2023-05-03T09:05:44.490Z,17.80
2023-05-03T09:08:17.234Z,17.60
2023-05-03T09:10:44.353Z,17.00
2023-05-03T09:13:12.275Z,17.00
2023-05-03T09:15:39.403Z,17.60
2023-05-03T09:18:11.022Z,18.10
2023-05-03T09:20:39.947Z,18.40
2023-05-03T09:23:10.374Z,18.60
2023-05-03T09:25:48.799Z,18.70
2023-05-03T09:28:17.179Z,18.70
2023-05-03T09:30:45.181Z,18.60
2023-05-03T09:33:12.629Z,19.00
2023-05-03T09:35:55.826Z,19.40
2023-05-03T09:38:30.590Z,19.40
2023-05-03T09:40:58.149Z,19.40
2023-05-03T09:43:25.326Z,19.20
2023-05-03T09:45:52.347Z,19.00
2023-05-03T09:48:23.701Z,18.50
2023-05-03T09:50:51.870Z,18.50
2023-05-03T09:53:21.633Z,18.60
2023-05-03T09:55:51.132Z,18.40
2023-05-03T09:58:19.286Z,18.70
2023-05-03T10:00:52.275Z,18.50
2023-05-03T10:03:27.708Z,18.30
2023-05-03T10:05:56.007Z,18.20
2023-05-03T10:08:34.205Z,17.90
2023-05-03T10:11:12.526Z,17.90
2023-05-03T10:13:39.547Z,18.10
2023-05-03T10:16:11.651Z,18.50
2023-05-03T10:18:48.054Z,19.10
2023-05-03T10:21:29.890Z,19.00
2023-05-03T10:24:17.272Z,18.50
2023-05-03T10:26:49.876Z,17.90
2023-05-03T10:29:35.101Z,17.60
2023-05-03T10:32:06.195Z,17.70
2023-05-03T10:34:35.304Z,17.90
2023-05-03T10:37:03.721Z,18.20
2023-05-03T10:39:31.606Z,18.50
2023-05-03T10:42:09.315Z,18.30
2023-05-03T10:44:49.977Z,17.70
2023-05-03T10:47:18.247Z,17.30
2023-05-03T10:49:46.792Z,17.10
2023-05-03T10:52:36.068Z,17.10
2023-05-03T10:55:10.230Z,17.10
2023-05-03T10:58:11.849Z,17.40
2023-05-03T11:00:44.728Z,17.50
2023-05-03T11:03:32.423Z,17.40
2023-05-03T11:05:59.455Z,17.40
2023-05-03T11:08:28.348Z,17.20
2023-05-03T11:11:00.736Z,17.20
2023-05-03T11:13:33.121Z,17.00
2023-05-03T11:16:00.241Z,17.10
2023-05-03T11:18:30.152Z,17.00
2023-05-03T11:24:37.819Z,16.80
2023-05-03T11:27:07.990Z,16.40
2023-05-03T11:29:36.304Z,16.30
2023-05-03T11:32:08.715Z,16.40
2023-05-03T11:34:36.474Z,16.90
2023-05-03T11:37:04.308Z,17.80
2023-05-03T11:39:33.317Z,18.50
2023-05-03T11:42:04.715Z,18.50
2023-05-03T11:44:32.159Z,18.10
2023-05-03T11:46:59.459Z,17.60
2023-05-03T11:49:26.775Z,17.20
2023-05-03T11:51:54.816Z,17.10
2023-05-03T11:54:26.908Z,17.40
2023-05-03T11:56:58.204Z,17.80
2023-05-03T11:59:55.846Z,18.60
2023-05-03T12:02:22.927Z,19.50
2023-05-03T12:04:50.029Z,20.00
2023-05-03T12:07:19.186Z,19.90
2023-05-03T12:10:01.091Z,19.40
2023-05-03T12:12:37.307Z,18.60
2023-05-03T12:15:08.541Z,18.30
2023-05-03T12:17:44.346Z,18.40
2023-05-03T12:22:58.881Z,19.40
2023-05-03T12:25:29.150Z,19.20
2023-05-03T12:28:18.702Z,18.80
2023-05-03T12:30:47.941Z,18.60
2023-05-03T12:33:22.072Z,18.60
2023-05-03T12:35:52.796Z,18.90
2023-05-03T12:38:23.640Z,18.70
2023-05-03T12:40:53.240Z,18.50
2023-05-03T12:43:20.350Z,18.60
2023-05-03T12:45:55.770Z,18.90
2023-05-03T12:48:34.650Z,19.70
2023-05-03T12:51:18.327Z,20.30
2023-05-03T12:53:48.020Z,20.50
2023-05-03T12:56:15.554Z,19.60
2023-05-03T12:59:07.478Z,18.80
2023-05-03T13:04:33.089Z,18.60
2023-05-03T13:06:57.611Z,18.80
2023-05-03T13:09:37.076Z,19.30
2023-05-03T13:12:13.379Z,19.80
2023-05-03T13:14:43.044Z,20.00
2023-05-03T13:17:10.432Z,19.80
2023-05-03T13:19:37.910Z,19.70
2023-05-03T13:22:05.277Z,19.70
2023-05-03T13:24:32.283Z,19.60
2023-05-03T13:26:59.649Z,19.60
2023-05-03T13:29:26.948Z,19.40
2023-05-03T13:31:54.336Z,19.70
2023-05-03T13:34:21.706Z,20.40
2023-05-03T13:36:48.995Z,20.90
2023-05-03T13:39:16.563Z,21.10
2023-05-03T13:41:43.881Z,20.80
2023-05-03T13:44:11.981Z,20.20
2023-05-03T13:46:40.868Z,19.80
2023-05-03T13:49:08.492Z,19.50
2023-05-03T13:51:36.166Z,19.40
2023-05-03T13:54:05.337Z,19.50
2023-05-03T13:56:33.180Z,19.80
2023-05-03T13:59:00.419Z,20.30
2023-05-03T14:01:29.013Z,20.50
2023-05-03T14:03:56.514Z,20.80
2023-05-03T14:06:23.837Z,20.90
2023-05-03T14:08:54.189Z,20.60
2023-05-03T14:11:21.921Z,19.90
2023-05-03T14:13:56.978Z,19.40
2023-05-03T14:18:56.462Z,18.50
2023-05-03T14:21:23.435Z,18.30
2023-05-03T14:23:51.307Z,18.30
2023-05-03T14:26:19.562Z,18.10
2023-05-03T14:28:47.305Z,18.40
2023-05-03T14:31:14.472Z,18.90
2023-05-03T14:33:41.724Z,19.40
2023-05-03T14:36:09.381Z,19.70
2023-05-03T14:38:37.470Z,20.00
2023-05-03T14:41:04.670Z,20.20
2023-05-03T14:43:32.551Z,20.40
2023-05-03T14:45:59.575Z,20.50
2023-05-03T14:48:26.749Z,19.80
2023-05-03T14:50:54.468Z,19.70
2023-05-03T14:53:22.728Z,19.50
2023-05-03T14:55:50.172Z,19.00
2023-05-03T14:58:17.255Z,18.70
2023-05-03T15:00:44.444Z,18.90
2023-05-03T15:03:12.433Z,19.30
2023-05-03T15:05:57.555Z,19.30
2023-05-03T15:08:24.518Z,19.20
2023-05-03T15:10:52.653Z,18.90
2023-05-03T15:13:19.747Z,18.50
2023-05-03T15:15:46.872Z,18.30
2023-05-03T15:18:15.739Z,17.90
2023-05-03T15:20:42.737Z,17.90
2023-05-03T15:23:09.785Z,18.10
2023-05-03T15:25:37.225Z,18.30
2023-05-03T15:28:04.793Z,18.30
2023-05-03T15:30:32.973Z,18.40
2023-05-03T15:33:01.150Z,18.50
2023-05-03T15:35:28.425Z,18.40
2023-05-03T15:37:55.436Z,18.30
2023-05-03T15:40:25.134Z,18.40
2023-05-03T15:42:53.872Z,18.40
2023-05-03T15:45:23.335Z,18.40
2023-05-03T15:47:50.567Z,18.50
2023-05-03T15:50:17.748Z,18.50
2023-05-03T15:52:46.890Z,18.40
2023-05-03T15:55:14.193Z,18.20
2023-05-03T15:57:41.485Z,18.10
2023-05-03T16:00:09.544Z,18.00
2023-05-03T16:02:37.560Z,18.00
2023-05-03T16:05:04.910Z,18.00
2023-05-03T16:07:32.173Z,18.10
2023-05-03T16:09:59.239Z,18.00
2023-05-03T16:12:27.480Z,17.90
2023-05-03T16:14:54.907Z,17.90
2023-05-03T16:17:22.299Z,17.80
2023-05-03T16:19:49.304Z,17.70
2023-05-03T16:22:17.047Z,17.70
2023-05-03T16:24:43.982Z,17.70
2023-05-03T16:27:11.467Z,17.60
2023-05-03T16:29:39.161Z,17.60
2023-05-03T16:32:10.019Z,17.50
2023-05-03T16:34:38.002Z,17.40
2023-05-03T16:37:05.360Z,17.30
2023-05-03T16:39:33.080Z,17.20
2023-05-03T16:42:00.292Z,17.30
2023-05-03T16:44:27.609Z,17.20
2023-05-03T16:46:55.284Z,17.10
2023-05-03T16:49:22.784Z,17.00
2023-05-03T16:51:49.850Z,17.00
2023-05-03T16:54:17.149Z,16.90
2023-05-03T16:56:44.896Z,16.80
2023-05-03T16:59:11.936Z,16.70
2023-05-03T17:01:39.213Z,16.70
2023-05-03T17:04:06.762Z,16.70
2023-05-03T17:06:33.841Z,16.70
2023-05-03T17:09:01.316Z,16.60
2023-05-03T17:11:28.512Z,16.60
2023-05-03T17:13:55.649Z,16.50
2023-05-03T17:16:23.339Z,16.40
2023-05-03T17:18:50.570Z,16.30
2023-05-03T17:21:19.218Z,16.30
2023-05-03T17:23:46.833Z,16.30
2023-05-03T17:26:14.570Z,16.10
2023-05-03T17:28:42.164Z,16.10
2023-05-03T17:31:09.300Z,16.00
2023-05-03T17:33:36.645Z,16.00
2023-05-03T17:36:06.476Z,15.80
2023-05-03T17:38:34.772Z,15.70
2023-05-03T17:41:09.163Z,15.60
2023-05-03T17:43:37.009Z,15.50
2023-05-03T17:46:12.201Z,15.40
2023-05-03T17:48:43.476Z,15.30
2023-05-03T17:51:13.735Z,15.20
2023-05-03T17:53:42.444Z,15.20
2023-05-03T17:56:14.472Z,15.10
2023-05-03T17:58:41.539Z,15.10
2023-05-03T18:01:10.539Z,14.90
2023-05-03T18:03:38.331Z,14.90
2023-05-03T18:06:10.723Z,14.80
2023-05-03T18:08:37.928Z,14.70
2023-05-03T18:11:08.978Z,14.60
2023-05-03T18:13:36.776Z,14.50
2023-05-03T18:16:07.920Z,14.40
2023-05-03T18:18:35.303Z,14.30
2023-05-03T18:21:04.137Z,14.20
2023-05-03T18:23:32.619Z,14.10
2023-05-03T18:26:00.426Z,14.00
2023-05-03T18:28:27.779Z,13.90
2023-05-03T18:30:56.136Z,13.80
2023-05-03T18:33:23.383Z,13.70
2023-05-03T18:35:52.022Z,13.60
2023-05-03T18:38:20.704Z,13.50
2023-05-03T18:40:49.165Z,13.40
2023-05-03T18:43:16.592Z,13.30
2023-05-03T18:45:43.689Z,13.20
2023-05-03T18:48:10.884Z,13.10
2023-05-03T18:50:39.561Z,12.90
2023-05-03T18:53:06.948Z,12.80
2023-05-03T18:55:33.998Z,12.80
2023-05-03T18:58:01.614Z,12.60
2023-05-03T19:00:28.743Z,12.50
2023-05-03T19:02:55.697Z,12.50
2023-05-03T19:05:22.746Z,12.40
2023-05-03T19:07:49.746Z,12.30
2023-05-03T19:10:17.585Z,12.20
2023-05-03T19:12:44.962Z,12.10
2023-05-03T19:15:12.420Z,11.80
2023-05-03T19:17:42.344Z,11.60
2023-05-03T19:20:12.807Z,11.40
2023-05-03T19:22:39.880Z,11.30
2023-05-03T19:25:08.021Z,11.20
2023-05-03T19:27:35.109Z,11.10
2023-05-03T19:30:02.321Z,11.00
2023-05-03T19:32:29.933Z,10.90
2023-05-03T19:34:57.123Z,10.80
2023-05-03T19:37:24.205Z,10.80
2023-05-03T19:39:51.794Z,10.70
2023-05-03T19:42:18.908Z,10.70
2023-05-03T19:44:45.941Z,10.60
2023-05-03T19:47:13.497Z,10.60
2023-05-03T19:49:40.597Z,10.50
2023-05-03T19:52:08.150Z,10.50
2023-05-03T19:54:35.512Z,10.40
2023-05-03T19:57:04.928Z,10.40
2023-05-03T19:59:32.661Z,10.30
2023-05-03T20:01:59.911Z,10.20
2023-05-03T20:04:26.976Z,10.20
2023-05-03T20:06:54.066Z,10.10
2023-05-03T20:09:23.516Z,10.10
2023-05-03T20:11:55.642Z,10.00
2023-05-03T20:14:22.573Z,9.90
2023-05-03T20:16:49.678Z,9.80
2023-05-03T20:19:16.900Z,9.70
2023-05-03T20:21:44.860Z,9.60
2023-05-03T20:24:11.870Z,9.50
2023-05-03T20:26:39.255Z,9.50
2023-05-03T20:29:06.315Z,9.50
2023-05-03T20:31:33.539Z,9.50
2023-05-03T20:34:01.018Z,9.50
2023-05-03T20:36:28.285Z,9.40
2023-05-03T20:38:55.874Z,9.40
2023-05-03T20:41:23.322Z,9.30
2023-05-03T20:43:53.579Z,9.30
2023-05-03T20:46:23.627Z,9.20
2023-05-03T20:48:50.626Z,9.10
2023-05-03T20:51:17.947Z,9.10
2023-05-03T20:53:44.950Z,9.00
2023-05-03T20:56:12.604Z,9.10
2023-05-03T20:58:41.133Z,9.00
2023-05-03T21:01:08.256Z,8.90
2023-05-03T21:03:35.688Z,8.80
2023-05-03T21:06:02.858Z,8.80
2023-05-03T21:08:29.961Z,8.80
2023-05-03T21:10:57.012Z,8.80
2023-05-03T21:13:24.201Z,8.80
2023-05-03T21:15:51.296Z,8.70
2023-05-03T21:18:19.568Z,8.70
2023-05-03T21:20:47.087Z,8.50
2023-05-03T21:23:14.205Z,8.40
2023-05-03T21:25:41.282Z,8.30
2023-05-03T21:28:08.273Z,8.20
2023-05-03T21:30:35.455Z,8.10
2023-05-03T21:33:02.446Z,8.10
2023-05-03T21:35:29.582Z,8.00
2023-05-03T21:37:56.622Z,8.00
2023-05-03T21:40:23.810Z,7.90
2023-05-03T21:42:53.825Z,7.80
2023-05-03T21:45:21.304Z,7.80
2023-05-03T21:47:48.889Z,7.80
2023-05-03T21:50:15.986Z,7.70
2023-05-03T21:52:43.140Z,7.70
2023-05-03T21:55:10.334Z,7.60
2023-05-03T21:57:38.052Z,7.60
2023-05-03T22:00:05.981Z,7.60
2023-05-03T22:02:33.226Z,7.60
2023-05-03T22:05:00.404Z,7.50
2023-05-03T22:07:27.809Z,7.40
2023-05-03T22:09:55.059Z,7.50
2023-05-03T22:12:24.519Z,7.50
2023-05-03T22:14:52.388Z,7.50
2023-05-03T22:17:19.387Z,7.60
2023-05-03T22:19:46.388Z,7.60
2023-05-03T22:22:13.403Z,7.60
2023-05-03T22:24:41.100Z,7.60
2023-05-03T22:27:08.291Z,7.50
2023-05-03T22:29:35.357Z,7.50
2023-05-03T22:32:03.211Z,7.40
2023-05-03T22:34:30.263Z,7.20
2023-05-03T22:36:57.264Z,7.00
2023-05-03T22:39:24.392Z,6.90
2023-05-03T22:41:51.417Z,6.80
2023-05-03T22:44:18.455Z,6.80
2023-05-03T22:46:45.469Z,6.70
2023-05-03T22:49:12.495Z,6.70
2023-05-03T22:51:39.477Z,6.80
2023-05-03T22:54:06.487Z,6.70
2023-05-03T22:56:33.471Z,6.60
2023-05-03T22:59:00.472Z,6.60
2023-05-03T23:01:28.383Z,6.60
2023-05-03T23:03:55.890Z,6.60
2023-05-03T23:06:23.905Z,6.60
2023-05-03T23:08:51.706Z,6.70
2023-05-03T23:11:18.706Z,6.60
2023-05-03T23:13:45.762Z,6.50
2023-05-03T23:16:12.992Z,6.40
2023-05-03T23:18:40.030Z,6.40
2023-05-03T23:21:07.139Z,6.30
2023-05-03T23:23:34.780Z,6.10
2023-05-03T23:26:01.878Z,6.10
2023-05-03T23:28:29.453Z,6.10
2023-05-03T23:30:56.849Z,6.00
2023-05-03T23:33:24.185Z,6.00
2023-05-03T23:35:51.886Z,6.10
2023-05-03T23:38:18.915Z,6.10
2023-05-03T23:40:46.029Z,6.20
2023-05-03T23:43:13.177Z,6.10
2023-05-03T23:45:40.340Z,6.10
2023-05-03T23:48:07.415Z,6.00
2023-05-03T23:50:34.504Z,6.00
2023-05-03T23:53:03.733Z,5.90
2023-05-03T23:55:30.879Z,5.80
2023-05-03T23:57:57.918Z,5.70
